createdAt,value
2022-08-26T00:03:39.408Z,8.30
2022-08-26T00:08:43.811Z,7.30
2022-08-26T00:13:49.651Z,8.70
2022-08-26T00:18:53.225Z,8.50
2022-08-26T00:23:56.279Z,7.40
2022-08-26T00:28:58.996Z,7.30
2022-08-26T00:34:03.179Z,7.00
2022-08-26T00:39:07.588Z,7.80
2022-08-26T00:44:14.053Z,7.30
2022-08-26T00:49:33.868Z,6.40
2022-08-26T00:54:42.376Z,7.10
2022-08-26T00:59:51.439Z,7.00
2022-08-26T01:04:59.109Z,6.30
2022-08-26T01:10:07.995Z,6.60
2022-08-26T01:15:16.342Z,6.10
2022-08-26T01:20:28.342Z,6.40
2022-08-26T01:25:33.578Z,7.00
2022-08-26T01:30:39.508Z,6.60
2022-08-26T01:35:43.390Z,7.60
2022-08-26T01:40:47.225Z,8.20
2022-08-26T01:45:51.583Z,7.90
2022-08-26T01:50:55.885Z,6.60
2022-08-26T01:56:01.330Z,7.10
2022-08-26T02:01:06.410Z,7.60
2022-08-26T02:06:10.371Z,6.50
2022-08-26T02:11:13.685Z,6.30
2022-08-26T02:16:19.477Z,7.10
2022-08-26T02:21:25.073Z,7.10
2022-08-26T02:26:27.887Z,6.50
2022-08-26T02:36:33.446Z,6.80
2022-08-26T02:41:44.073Z,6.50
2022-08-26T02:46:48.364Z,6.10
2022-08-26T02:51:52.696Z,6.40
2022-08-26T02:56:56.367Z,6.10
2022-08-26T03:02:00.492Z,6.50
2022-08-26T03:07:04.254Z,6.00
2022-08-26T03:12:08.045Z,6.10
2022-08-26T03:17:10.901Z,6.40
2022-08-26T03:22:14.533Z,5.50
2022-08-26T03:27:17.828Z,5.60
2022-08-26T03:32:20.805Z,6.60
2022-08-26T03:37:23.588Z,6.50
2022-08-26T03:42:26.472Z,5.60
2022-08-26T03:47:29.266Z,6.80
2022-08-26T03:52:32.077Z,7.00
2022-08-26T03:57:34.806Z,6.20
2022-08-26T04:02:38.156Z,7.80
2022-08-26T04:07:42.982Z,8.20
2022-08-26T04:12:46.361Z,7.80
2022-08-26T04:17:49.299Z,6.90
2022-08-26T04:22:52.645Z,9.40
2022-08-26T04:27:55.635Z,9.60
2022-08-26T04:32:58.709Z,7.70
2022-08-26T04:38:03.368Z,8.10
2022-08-26T04:43:08.987Z,8.70
2022-08-26T04:48:12.333Z,7.90
2022-08-26T04:53:20.533Z,8.20
2022-08-26T04:58:25.228Z,7.70
2022-08-26T05:03:30.534Z,8.10
2022-08-26T05:08:34.182Z,7.20
2022-08-26T05:13:39.223Z,7.10
2022-08-26T05:18:43.704Z,7.00
2022-08-26T05:23:50.553Z,8.50
2022-08-26T05:28:54.735Z,9.50
2022-08-26T05:33:59.236Z,10.30
2022-08-26T05:39:07.935Z,8.50
2022-08-26T05:44:20.246Z,10.10
2022-08-26T05:49:26.418Z,9.50
2022-08-26T05:54:29.544Z,10.10
2022-08-26T05:59:32.500Z,10.50
2022-08-26T06:04:35.559Z,10.40
2022-08-26T06:09:39.907Z,11.30
2022-08-26T06:14:42.878Z,11.60
2022-08-26T06:19:45.717Z,11.10
2022-08-26T06:25:07.442Z,11.90
2022-08-26T06:30:13.204Z,11.50
2022-08-26T06:35:16.404Z,10.50
2022-08-26T06:40:21.030Z,10.80
2022-08-26T06:45:24.230Z,10.60
2022-08-26T06:50:27.109Z,11.60
2022-08-26T06:55:30.477Z,10.90
2022-08-26T07:00:33.901Z,11.10
2022-08-26T07:05:37.116Z,10.60
2022-08-26T07:10:39.891Z,10.20
2022-08-26T07:15:42.800Z,8.80
2022-08-26T07:20:45.830Z,9.40
2022-08-26T07:25:48.553Z,9.40
2022-08-26T07:30:52.072Z,9.70
2022-08-26T07:35:56.247Z,9.90
2022-08-26T07:40:59.523Z,9.50
2022-08-26T07:46:04.291Z,9.70
2022-08-26T07:51:07.627Z,8.70
2022-08-26T07:56:11.626Z,8.80
2022-08-26T08:01:14.894Z,9.40
2022-08-26T08:06:21.358Z,9.20
2022-08-26T08:11:27.297Z,10.20
2022-08-26T08:16:32.224Z,8.90
2022-08-26T08:21:36.178Z,8.10
2022-08-26T08:26:39.479Z,9.00
2022-08-26T08:31:58.353Z,7.10
2022-08-26T08:37:07.344Z,7.50
2022-08-26T08:42:36.774Z,7.90
2022-08-26T08:47:50.522Z,7.40
2022-08-26T08:53:15.283Z,7.30
2022-08-26T08:58:22.079Z,7.70
2022-08-26T09:03:40.376Z,7.70
2022-08-26T09:08:47.030Z,7.20
2022-08-26T09:13:55.347Z,7.20
2022-08-26T09:19:11.472Z,6.80
2022-08-26T09:24:14.268Z,6.50
2022-08-26T09:29:26.849Z,6.70
2022-08-26T09:34:29.667Z,6.60
2022-08-26T09:39:37.523Z,6.50
2022-08-26T09:45:03.919Z,7.20
2022-08-26T09:50:30.160Z,6.40
2022-08-26T09:55:33.095Z,6.40
2022-08-26T10:00:39.369Z,6.80
2022-08-26T10:06:00.207Z,6.50
2022-08-26T10:11:11.247Z,6.60
2022-08-26T10:21:37.729Z,5.80
2022-08-26T10:26:54.441Z,6.60
2022-08-26T10:32:03.404Z,6.10
2022-08-26T10:37:15.636Z,5.80
2022-08-26T10:42:37.606Z,6.30
2022-08-26T10:47:48.697Z,5.80
2022-08-26T10:53:06.374Z,6.20
2022-08-26T10:58:30.201Z,6.40
2022-08-26T11:04:14.269Z,5.80
2022-08-26T11:09:45.948Z,8.20
2022-08-26T11:14:58.667Z,6.00
2022-08-26T11:20:08.933Z,6.30
2022-08-26T11:25:18.450Z,5.50
2022-08-26T11:30:21.543Z,6.20
2022-08-26T11:35:26.902Z,6.30
2022-08-26T11:40:35.410Z,6.60
2022-08-26T11:45:42.204Z,5.70
2022-08-26T11:50:55.394Z,6.00
2022-08-26T11:56:00.568Z,5.70
2022-08-26T12:01:09.928Z,6.40
2022-08-26T12:06:23.019Z,6.70
2022-08-26T12:11:27.285Z,6.30
2022-08-26T12:16:36.048Z,6.10
2022-08-26T12:21:38.826Z,6.30
2022-08-26T12:26:42.119Z,6.00
2022-08-26T12:31:44.959Z,5.70
2022-08-26T12:36:56.839Z,6.50
2022-08-26T12:42:04.501Z,6.00
2022-08-26T12:47:42.150Z,5.60
2022-08-26T12:52:52.393Z,6.30
2022-08-26T12:58:13.528Z,5.60
2022-08-26T13:03:34.557Z,6.30
2022-08-26T13:08:41.344Z,5.30
2022-08-26T13:13:45.832Z,5.20
2022-08-26T13:18:57.722Z,5.70
2022-08-26T13:24:16.848Z,5.60
2022-08-26T13:29:20.142Z,5.10
2022-08-26T13:34:24.234Z,5.60
2022-08-26T13:39:27.340Z,5.60
2022-08-26T13:44:30.295Z,5.30
2022-08-26T13:49:33.364Z,5.20
2022-08-26T13:54:36.411Z,4.70
2022-08-26T13:59:39.266Z,5.60
2022-08-26T14:04:43.600Z,5.40
2022-08-26T14:09:46.709Z,6.50
2022-08-26T14:14:49.617Z,5.80
2022-08-26T14:19:53.814Z,5.30
2022-08-26T14:24:56.960Z,5.50
2022-08-26T14:30:00.269Z,5.80
2022-08-26T14:35:03.325Z,6.00
2022-08-26T14:40:07.212Z,6.20
2022-08-26T14:45:15.998Z,6.20
2022-08-26T14:50:24.862Z,5.80
2022-08-26T14:55:28.203Z,6.00
2022-08-26T15:00:31.512Z,6.30
2022-08-26T15:05:34.646Z,6.90
2022-08-26T15:10:38.191Z,5.80
2022-08-26T15:15:41.083Z,5.70
2022-08-26T15:20:44.654Z,6.20
2022-08-26T15:25:48.321Z,5.30
2022-08-26T15:30:51.338Z,6.20
2022-08-26T15:35:55.981Z,6.60
2022-08-26T15:41:02.955Z,5.20
2022-08-26T15:46:11.726Z,5.80
2022-08-26T15:51:22.657Z,6.00
2022-08-26T15:56:32.661Z,5.50
2022-08-26T16:01:37.325Z,6.50
2022-08-26T16:06:42.563Z,6.40
2022-08-26T16:11:45.431Z,5.50
2022-08-26T16:16:49.232Z,6.20
2022-08-26T16:21:52.128Z,5.60
2022-08-26T16:26:54.986Z,6.10
2022-08-26T16:31:57.850Z,6.00
2022-08-26T16:37:00.757Z,6.10
2022-08-26T16:42:03.741Z,7.50
2022-08-26T16:47:06.916Z,6.60
2022-08-26T16:52:11.338Z,7.20
2022-08-26T16:57:16.908Z,9.00
2022-08-26T17:02:20.246Z,8.50
2022-08-26T17:07:23.635Z,7.10
2022-08-26T17:12:26.847Z,6.60
2022-08-26T17:17:29.708Z,7.40
2022-08-26T17:22:34.679Z,8.70
2022-08-26T17:27:37.812Z,8.80
2022-08-26T17:32:42.402Z,7.40
2022-08-26T17:37:45.275Z,7.40
2022-08-26T17:42:48.831Z,7.50
2022-08-26T17:47:53.707Z,7.80
2022-08-26T17:52:56.496Z,12.10
2022-08-26T17:57:59.486Z,10.90
2022-08-26T18:03:02.777Z,14.50
2022-08-26T18:08:06.421Z,15.40
2022-08-26T18:13:09.690Z,15.00
2022-08-26T18:18:16.079Z,17.00
2022-08-26T18:23:18.978Z,17.40
2022-08-26T18:28:21.815Z,11.50
2022-08-26T18:33:24.629Z,12.70
2022-08-26T18:38:28.463Z,11.80
2022-08-26T18:43:31.292Z,11.00
2022-08-26T18:48:36.765Z,10.20
2022-08-26T18:53:39.530Z,10.20
2022-08-26T18:58:42.249Z,12.20
2022-08-26T19:03:46.282Z,13.40
2022-08-26T19:08:50.175Z,12.30
2022-08-26T19:13:55.297Z,10.90
2022-08-26T19:18:58.942Z,13.10
2022-08-26T19:24:04.177Z,12.80
2022-08-26T19:29:07.136Z,16.30
2022-08-26T19:34:10.585Z,16.30
2022-08-26T19:39:13.460Z,21.00
2022-08-26T19:44:37.781Z,17.80
2022-08-26T19:49:40.578Z,14.00
2022-08-26T19:54:44.550Z,14.80
2022-08-26T19:59:47.517Z,13.80
2022-08-26T20:04:50.282Z,11.30
2022-08-26T20:09:53.116Z,11.00
2022-08-26T20:14:55.951Z,10.40
2022-08-26T20:20:28.454Z,10.90
2022-08-26T20:25:36.344Z,9.90
2022-08-26T20:30:40.170Z,10.60
2022-08-26T20:35:43.075Z,9.00
2022-08-26T20:40:46.287Z,9.00
2022-08-26T20:45:50.257Z,8.60
2022-08-26T20:50:57.533Z,9.70
2022-08-26T20:56:02.875Z,8.70
2022-08-26T21:01:08.271Z,7.90
2022-08-26T21:06:11.558Z,8.60
2022-08-26T21:11:15.176Z,9.10
2022-08-26T21:16:19.713Z,9.30
2022-08-26T21:21:25.025Z,9.00
2022-08-26T21:26:28.398Z,8.70
2022-08-26T21:31:32.375Z,9.60
2022-08-26T21:36:35.455Z,9.50
2022-08-26T21:41:39.217Z,8.70
2022-08-26T21:46:43.796Z,9.40
2022-08-26T21:51:48.487Z,10.30
2022-08-26T21:56:51.446Z,10.80
2022-08-26T22:01:54.718Z,10.60
2022-08-26T22:06:59.199Z,11.00
2022-08-26T22:12:02.204Z,11.20
2022-08-26T22:17:05.545Z,10.10
2022-08-26T22:22:08.584Z,9.60
2022-08-26T22:27:12.174Z,10.60
2022-08-26T22:32:15.241Z,10.50
2022-08-26T22:37:18.162Z,9.70
2022-08-26T22:42:21.007Z,10.30
2022-08-26T22:47:24.273Z,9.60
2022-08-26T22:52:27.491Z,9.90
2022-08-26T22:57:30.494Z,9.20
2022-08-26T23:02:33.340Z,8.90
2022-08-26T23:07:36.598Z,8.20
2022-08-26T23:12:39.513Z,9.30
2022-08-26T23:17:42.617Z,9.80
2022-08-26T23:22:45.544Z,8.20
2022-08-26T23:27:48.851Z,9.10
2022-08-26T23:32:52.155Z,8.40
2022-08-26T23:37:55.072Z,8.40
2022-08-26T23:43:05.738Z,7.30
2022-08-26T23:48:08.917Z,8.40
2022-08-26T23:53:19.489Z,9.40
2022-08-26T23:58:22.946Z,9.90
